createdAt,value
2019-05-15T00:01:59.018Z,16.16
2019-05-15T00:04:38.236Z,16.14
2019-05-15T00:10:48.453Z,15.96
2019-05-15T00:13:43.499Z,15.86
2019-05-15T00:16:22.648Z,15.76
2019-05-15T00:18:58.894Z,15.72
2019-05-15T00:21:31.988Z,15.48
2019-05-15T00:24:13.224Z,15.48
2019-05-15T00:26:48.072Z,15.59
2019-05-15T00:29:19.951Z,15.68
2019-05-15T00:31:51.970Z,15.69
2019-05-15T00:34:28.459Z,15.61
2019-05-15T00:37:05.111Z,15.57
2019-05-15T00:39:42.267Z,15.50
2019-05-15T00:42:13.951Z,15.46
2019-05-15T00:44:45.084Z,15.43
2019-05-15T00:47:18.091Z,15.27
2019-05-15T00:49:49.624Z,15.35
2019-05-15T00:52:28.447Z,15.26
2019-05-15T00:55:08.663Z,15.19
2019-05-15T01:01:19.337Z,15.08
2019-05-15T01:04:03.714Z,14.95
2019-05-15T01:06:39.911Z,14.85
2019-05-15T01:09:18.705Z,14.88
2019-05-15T01:11:49.708Z,14.73
2019-05-15T01:14:20.577Z,14.88
2019-05-15T01:16:51.347Z,14.91
2019-05-15T01:19:22.492Z,14.93
2019-05-15T01:21:53.805Z,14.87
2019-05-15T01:24:24.612Z,14.87
2019-05-15T01:26:55.723Z,14.83
2019-05-15T01:29:38.387Z,14.76
2019-05-15T01:32:19.100Z,14.72
2019-05-15T01:34:50.246Z,14.64
2019-05-15T01:37:21.183Z,14.56
2019-05-15T01:39:51.857Z,14.49
2019-05-15T01:42:27.873Z,14.50
2019-05-15T01:44:58.945Z,14.41
2019-05-15T01:47:30.135Z,14.52
2019-05-15T01:50:02.701Z,14.51
2019-05-15T01:52:34.497Z,14.46
2019-05-15T01:55:05.744Z,14.39
2019-05-15T01:57:38.438Z,14.39
2019-05-15T02:00:10.045Z,14.44
2019-05-15T02:02:40.657Z,14.40
2019-05-15T02:05:11.388Z,14.36
2019-05-15T02:07:41.983Z,14.42
2019-05-15T02:10:13.253Z,14.46
2019-05-15T02:12:43.772Z,14.48
2019-05-15T02:15:14.448Z,14.66
2019-05-15T02:17:44.990Z,14.69
2019-05-15T02:20:15.589Z,14.65
2019-05-15T02:22:48.373Z,14.70
2019-05-15T02:25:19.145Z,14.79
2019-05-15T02:27:49.645Z,14.85
2019-05-15T02:30:28.490Z,14.95
2019-05-15T02:32:52.667Z,14.87
2019-05-15T02:35:23.171Z,14.73
2019-05-15T02:37:53.647Z,14.80
2019-05-15T02:40:24.388Z,14.96
2019-05-15T02:42:55.367Z,14.90
2019-05-15T02:45:26.036Z,15.00
2019-05-15T02:47:59.482Z,15.11
2019-05-15T02:50:29.378Z,15.12
2019-05-15T02:53:01.079Z,15.09
2019-05-15T02:55:31.543Z,14.93
2019-05-15T02:58:02.086Z,14.89
2019-05-15T03:00:44.000Z,15.08
2019-05-15T03:03:05.570Z,15.08
2019-05-15T03:05:36.008Z,15.08
2019-05-15T03:08:09.300Z,15.14
2019-05-15T03:10:40.666Z,15.03
2019-05-15T03:13:10.959Z,15.01
2019-05-15T03:15:41.391Z,15.10
2019-05-15T03:18:11.900Z,15.27
2019-05-15T03:20:42.356Z,15.24
2019-05-15T03:23:12.979Z,15.33
2019-05-15T03:25:49.514Z,15.32
2019-05-15T03:28:20.041Z,15.55
2019-05-15T03:31:15.476Z,15.66
2019-05-15T03:33:28.002Z,15.67
2019-05-15T03:36:01.703Z,15.81
2019-05-15T03:38:29.953Z,15.84
2019-05-15T03:41:00.956Z,15.99
2019-05-15T03:43:31.841Z,16.20
2019-05-15T03:46:02.380Z,16.42
2019-05-15T03:48:33.001Z,16.51
2019-05-15T03:51:04.246Z,16.57
2019-05-15T03:53:39.922Z,16.74
2019-05-15T03:56:10.163Z,16.77
2019-05-15T03:58:40.761Z,16.88
2019-05-15T04:01:28.230Z,17.07
2019-05-15T04:03:43.647Z,17.15
2019-05-15T04:06:14.103Z,17.22
2019-05-15T04:08:44.666Z,17.42
2019-05-15T04:11:15.301Z,17.55
2019-05-15T04:13:45.971Z,17.72
2019-05-15T04:16:19.129Z,17.89
2019-05-15T04:18:49.294Z,18.02
2019-05-15T04:21:20.339Z,18.16
2019-05-15T04:23:53.015Z,18.25
2019-05-15T04:26:25.177Z,18.39
2019-05-15T04:29:00.154Z,18.49
2019-05-15T04:31:41.165Z,18.63
2019-05-15T04:34:02.094Z,18.76
2019-05-15T04:36:32.867Z,18.77
2019-05-15T04:39:05.915Z,18.98
2019-05-15T04:41:39.341Z,19.16
2019-05-15T04:44:10.350Z,19.31
2019-05-15T04:46:40.972Z,19.49
2019-05-15T04:49:11.915Z,19.60
2019-05-15T04:51:42.554Z,19.82
2019-05-15T04:54:14.015Z,19.96
2019-05-15T04:56:44.622Z,20.16
2019-05-15T04:59:18.808Z,20.33
2019-05-15T05:01:51.299Z,20.49
2019-05-15T05:04:20.937Z,20.60
2019-05-15T05:06:54.476Z,20.73
2019-05-15T05:09:25.303Z,20.85
2019-05-15T05:11:58.279Z,20.95
2019-05-15T05:14:29.133Z,20.99
2019-05-15T05:17:00.347Z,21.17
2019-05-15T05:19:33.071Z,21.26
2019-05-15T05:22:07.771Z,21.27
2019-05-15T05:24:38.733Z,21.57
2019-05-15T05:27:09.655Z,21.64
2019-05-15T05:29:40.604Z,21.67
2019-05-15T05:32:11.562Z,21.76
2019-05-15T05:34:43.300Z,21.87
2019-05-15T05:37:14.650Z,21.93
2019-05-15T05:39:45.682Z,22.11
2019-05-15T05:42:35.473Z,22.39
2019-05-15T05:45:09.997Z,22.58
2019-05-15T05:47:42.473Z,22.72
2019-05-15T05:50:18.939Z,22.64
2019-05-15T05:52:50.289Z,22.75
2019-05-15T05:55:22.867Z,22.87
2019-05-15T05:57:59.729Z,22.83
2019-05-15T06:00:42.833Z,22.86
2019-05-15T06:03:28.860Z,22.96
2019-05-15T06:06:02.940Z,23.12
2019-05-15T06:08:48.594Z,22.95
2019-05-15T06:18:19.367Z,23.33
2019-05-15T06:20:49.393Z,23.50
2019-05-15T06:23:24.251Z,23.71
2019-05-15T06:26:01.171Z,23.71
2019-05-15T06:28:33.954Z,23.77
2019-05-15T06:31:16.155Z,24.01
2019-05-15T06:33:51.189Z,24.05
2019-05-15T06:36:25.410Z,24.19
2019-05-15T06:39:08.328Z,24.39
2019-05-15T06:41:39.364Z,24.57
2019-05-15T06:44:23.102Z,24.53
2019-05-15T06:46:55.671Z,24.66
2019-05-15T06:49:30.372Z,24.73
2019-05-15T07:04:31.703Z,25.26
2019-05-15T07:07:11.139Z,25.52
2019-05-15T07:10:08.704Z,25.50
2019-05-15T07:13:12.044Z,25.25
2019-05-15T07:15:58.458Z,25.53
2019-05-15T07:21:57.951Z,25.62
2019-05-15T07:24:34.952Z,25.87
2019-05-15T07:27:15.622Z,25.92
2019-05-15T07:30:07.740Z,26.02
2019-05-15T07:33:10.113Z,25.97
2019-05-15T07:39:28.775Z,26.28
2019-05-15T07:42:11.627Z,26.58
2019-05-15T07:44:59.565Z,26.58
2019-05-15T07:47:40.746Z,26.65
2019-05-15T07:50:27.049Z,26.63
2019-05-15T07:53:02.592Z,26.32
2019-05-15T07:55:39.565Z,26.42
2019-05-15T07:58:40.893Z,26.29
2019-05-15T08:01:24.468Z,26.30
2019-05-15T08:04:14.320Z,26.21
2019-05-15T08:06:38.981Z,26.09
2019-05-15T08:09:13.048Z,26.16
2019-05-15T08:11:53.538Z,26.27
2019-05-15T08:18:07.620Z,26.14
2019-05-15T08:21:42.007Z,26.03
2019-05-15T08:36:38.683Z,25.50
2019-05-15T08:46:38.710Z,25.22
2019-05-15T08:49:53.112Z,25.18
2019-05-15T08:56:35.387Z,25.74
2019-05-15T08:59:58.186Z,25.98
2019-05-15T09:16:24.584Z,27.21
2019-05-15T09:19:31.193Z,27.16
2019-05-15T09:22:33.297Z,27.14
2019-05-15T09:28:49.153Z,27.37
2019-05-15T09:31:39.134Z,27.23
2019-05-15T09:34:46.408Z,27.75
2019-05-15T09:37:52.671Z,28.00
2019-05-15T09:40:08.869Z,28.19
2019-05-15T09:42:40.219Z,28.26
2019-05-15T09:45:58.202Z,28.44
2019-05-15T09:53:30.049Z,28.13
2019-05-15T10:03:03.189Z,28.42
2019-05-15T10:06:31.371Z,28.63
2019-05-15T10:12:33.892Z,28.61
2019-05-15T10:15:24.057Z,28.74
2019-05-15T10:17:59.521Z,28.52
2019-05-15T10:20:42.731Z,28.79
2019-05-15T10:23:19.078Z,28.82
2019-05-15T10:25:53.516Z,28.81
2019-05-15T10:57:42.330Z,27.92
2019-05-15T11:29:02.051Z,29.37
2019-05-15T11:52:25.252Z,29.72
2019-05-15T11:59:11.306Z,30.18
2019-05-15T12:02:12.635Z,29.87
2019-05-15T12:26:56.164Z,30.22
2019-05-15T12:29:04.924Z,30.15
2019-05-15T12:59:52.851Z,29.91
2019-05-15T13:53:12.783Z,28.15
2019-05-15T15:16:42.117Z,25.98
2019-05-15T15:19:53.354Z,25.86
2019-05-15T15:22:39.576Z,25.84
2019-05-15T15:25:40.195Z,25.86
2019-05-15T15:40:52.303Z,25.64
2019-05-15T15:50:33.056Z,25.51
2019-05-15T15:53:22.959Z,25.40
2019-05-15T16:10:51.893Z,25.06
2019-05-15T16:18:50.561Z,25.00
2019-05-15T16:39:21.616Z,24.70
2019-05-15T16:42:19.076Z,24.47
2019-05-15T16:45:16.537Z,24.46
2019-05-15T17:01:56.176Z,23.62
2019-05-15T17:04:38.889Z,23.55
2019-05-15T17:07:30.514Z,23.46
2019-05-15T17:10:03.505Z,23.27
2019-05-15T17:12:42.328Z,23.18
2019-05-15T17:15:21.252Z,23.15
2019-05-15T17:18:13.082Z,22.80
2019-05-15T17:20:53.339Z,22.64
2019-05-15T17:23:30.524Z,22.48
2019-05-15T17:26:08.726Z,22.30
2019-05-15T17:28:39.880Z,22.15
2019-05-15T17:31:17.952Z,22.01
2019-05-15T17:33:58.235Z,21.86
2019-05-15T17:36:38.228Z,21.80
2019-05-15T17:39:11.706Z,21.77
2019-05-15T17:41:48.266Z,21.70
2019-05-15T17:44:22.170Z,21.49
2019-05-15T17:46:55.283Z,21.38
2019-05-15T17:49:29.773Z,21.35
2019-05-15T17:52:05.253Z,21.46
2019-05-15T17:54:44.367Z,21.37
2019-05-15T17:57:28.623Z,21.10
2019-05-15T17:59:50.685Z,21.10
2019-05-15T18:02:28.440Z,20.99
2019-05-15T18:05:00.400Z,20.83
2019-05-15T18:07:38.852Z,20.75
2019-05-15T18:10:10.884Z,20.64
2019-05-15T18:12:43.360Z,20.61
2019-05-15T18:15:17.063Z,20.50
2019-05-15T18:17:51.064Z,20.37
2019-05-15T18:20:33.063Z,20.32
2019-05-15T18:23:08.463Z,20.23
2019-05-15T18:25:41.301Z,20.16
2019-05-15T18:28:18.729Z,20.38
2019-05-15T18:30:50.345Z,20.39
2019-05-15T18:33:23.404Z,20.31
2019-05-15T18:36:01.859Z,20.15
2019-05-15T18:38:34.841Z,20.06
2019-05-15T18:41:05.684Z,19.89
2019-05-15T18:43:38.315Z,19.94
2019-05-15T18:46:13.077Z,19.89
2019-05-15T18:48:49.751Z,19.69
2019-05-15T18:51:23.209Z,19.77
2019-05-15T18:53:58.650Z,19.59
2019-05-15T18:56:29.877Z,19.50
2019-05-15T18:59:05.495Z,19.47
2019-05-15T19:01:39.371Z,19.34
2019-05-15T19:04:10.708Z,19.25
2019-05-15T19:06:47.981Z,19.30
2019-05-15T19:09:19.017Z,19.37
2019-05-15T19:11:50.322Z,19.25
2019-05-15T19:14:21.565Z,19.17
2019-05-15T19:16:59.953Z,19.14
2019-05-15T19:19:34.915Z,19.09
2019-05-15T19:22:08.630Z,19.15
2019-05-15T19:24:40.262Z,19.11
2019-05-15T19:27:11.296Z,18.97
2019-05-15T19:29:43.531Z,18.91
2019-05-15T19:32:14.935Z,18.81
2019-05-15T19:34:48.570Z,18.85
2019-05-15T19:37:19.651Z,18.98
2019-05-15T19:39:58.464Z,18.90
2019-05-15T19:42:30.740Z,18.84
2019-05-15T19:45:05.356Z,18.87
2019-05-15T19:47:38.417Z,18.81
2019-05-15T19:50:09.389Z,18.67
2019-05-15T19:52:43.499Z,18.60
2019-05-15T19:55:14.892Z,18.60
2019-05-15T19:57:49.211Z,18.58
2019-05-15T20:00:22.148Z,18.58
2019-05-15T20:02:53.400Z,18.54
2019-05-15T20:05:24.895Z,18.56
2019-05-15T20:07:55.936Z,18.58
2019-05-15T20:10:28.981Z,18.56
2019-05-15T20:13:00.348Z,18.50
2019-05-15T20:15:31.065Z,18.45
2019-05-15T20:18:02.526Z,18.48
2019-05-15T20:20:33.736Z,18.43
2019-05-15T20:23:05.157Z,18.41
2019-05-15T20:25:38.250Z,18.38
2019-05-15T20:28:12.212Z,18.33
2019-05-15T20:30:43.210Z,18.31
2019-05-15T20:33:14.440Z,18.30
2019-05-15T20:35:45.247Z,18.24
2019-05-15T20:38:16.732Z,18.31
2019-05-15T20:40:48.570Z,18.23
2019-05-15T20:43:21.323Z,18.11
2019-05-15T20:45:52.801Z,18.15
2019-05-15T20:48:23.459Z,18.26
2019-05-15T20:51:05.647Z,18.20
2019-05-15T20:53:34.525Z,18.15
2019-05-15T20:56:08.816Z,18.20
2019-05-15T20:58:58.301Z,18.20
2019-05-15T21:01:30.004Z,18.09
2019-05-15T21:04:28.052Z,18.00
2019-05-15T21:07:12.010Z,17.81
2019-05-15T21:09:58.804Z,17.80
2019-05-15T21:13:18.764Z,17.81
2019-05-15T21:16:05.009Z,17.87
2019-05-15T21:18:41.550Z,17.83
2019-05-15T21:21:14.464Z,17.78
2019-05-15T21:23:49.429Z,17.67
2019-05-15T21:26:20.360Z,17.62
2019-05-15T21:28:54.761Z,17.59
2019-05-15T21:31:28.975Z,17.68
2019-05-15T21:34:02.063Z,17.57
2019-05-15T21:36:35.053Z,17.49
2019-05-15T21:39:09.574Z,17.45
2019-05-15T21:41:42.319Z,17.48
2019-05-15T21:44:32.854Z,17.50
2019-05-15T21:47:08.168Z,17.41
2019-05-15T21:49:39.712Z,17.42
2019-05-15T21:52:10.596Z,17.38
2019-05-15T21:54:41.798Z,17.30
2019-05-15T21:57:32.305Z,17.34
2019-05-15T21:59:45.803Z,17.30
2019-05-15T22:02:18.208Z,17.43
2019-05-15T22:04:55.773Z,17.30
2019-05-15T22:07:28.613Z,17.27
2019-05-15T22:09:59.753Z,17.11
2019-05-15T22:12:30.998Z,17.21
2019-05-15T22:15:01.885Z,17.30
2019-05-15T22:17:32.467Z,17.17
2019-05-15T22:20:03.431Z,17.11
2019-05-15T22:22:34.411Z,17.00
2019-05-15T22:25:11.240Z,17.05
2019-05-15T22:27:41.565Z,17.08
2019-05-15T22:30:14.054Z,16.94
2019-05-15T22:32:44.678Z,16.88
2019-05-15T22:35:15.272Z,16.93
2019-05-15T22:37:45.707Z,16.81
2019-05-15T22:40:18.308Z,16.81
2019-05-15T22:42:48.938Z,16.87
2019-05-15T22:45:19.541Z,16.94
2019-05-15T22:47:49.991Z,16.98
2019-05-15T22:50:20.440Z,16.94
2019-05-15T22:52:50.872Z,16.94
2019-05-15T22:55:21.397Z,16.83
2019-05-15T22:57:51.866Z,16.65
2019-05-15T23:00:22.445Z,16.55
2019-05-15T23:02:52.872Z,16.68
2019-05-15T23:05:28.154Z,16.70
2019-05-15T23:07:55.606Z,16.70
2019-05-15T23:10:28.918Z,16.72
2019-05-15T23:12:58.356Z,16.75
2019-05-15T23:15:28.891Z,16.72
2019-05-15T23:17:59.335Z,16.79
2019-05-15T23:20:29.807Z,16.73
2019-05-15T23:23:00.252Z,16.60
2019-05-15T23:25:30.746Z,16.63
2019-05-15T23:28:01.192Z,16.69
2019-05-15T23:30:31.659Z,16.74
2019-05-15T23:33:02.110Z,16.73
2019-05-15T23:35:37.541Z,16.74
2019-05-15T23:38:04.800Z,16.70
2019-05-15T23:40:35.409Z,16.61
2019-05-15T23:43:08.678Z,16.56
2019-05-15T23:45:38.967Z,16.65
2019-05-15T23:48:09.629Z,16.64
2019-05-15T23:50:40.117Z,16.45
2019-05-15T23:53:10.558Z,16.53
2019-05-15T23:55:41.038Z,16.58
2019-05-15T23:58:11.478Z,16.46
